createdAt,value
2018-07-17T00:01:12.890Z,100819.50
2018-07-17T00:06:16.027Z,100820.95
2018-07-17T00:11:19.225Z,100821.27
2018-07-17T00:16:23.289Z,100812.81
2018-07-17T00:21:26.416Z,100817.06
2018-07-17T00:26:29.544Z,100809.16
2018-07-17T00:31:32.684Z,100806.87
2018-07-17T00:36:36.453Z,100806.36
2018-07-17T00:41:39.708Z,100798.25
2018-07-17T00:46:42.900Z,100798.03
2018-07-17T00:51:46.080Z,100801.67
2018-07-17T00:56:49.187Z,100804.24
2018-07-17T01:01:52.389Z,100795.31
2018-07-17T01:06:55.503Z,100800.06
2018-07-17T01:11:58.665Z,100807.01
2018-07-17T01:17:01.978Z,100795.63
2018-07-17T01:22:05.537Z,100797.80
2018-07-17T01:27:08.827Z,100795.06
2018-07-17T01:32:12.614Z,100794.88
2018-07-17T01:37:15.941Z,100797.84
2018-07-17T01:42:19.264Z,100788.92
2018-07-17T01:47:22.408Z,100792.61
2018-07-17T01:52:25.616Z,100800.27
2018-07-17T01:57:28.736Z,100802.28
2018-07-17T02:02:31.876Z,100793.58
2018-07-17T02:07:35.102Z,100795.42
2018-07-17T02:12:38.384Z,100787.76
2018-07-17T02:17:41.585Z,100789.09
2018-07-17T02:22:44.827Z,100792.49
2018-07-17T02:27:48.035Z,100789.24
2018-07-17T02:32:51.162Z,100792.32
2018-07-17T02:37:54.288Z,100791.44
2018-07-17T02:42:57.382Z,100785.20
2018-07-17T02:48:00.516Z,100792.37
2018-07-17T02:53:03.608Z,100790.30
2018-07-17T02:58:07.034Z,100790.38
2018-07-17T03:03:10.384Z,100798.09
2018-07-17T03:08:13.582Z,100802.35
2018-07-17T03:13:16.864Z,100801.30
2018-07-17T03:18:20.858Z,100799.19
2018-07-17T03:23:25.489Z,100805.42
2018-07-17T03:28:29.422Z,100809.39
2018-07-17T03:33:35.181Z,100796.47
2018-07-17T03:38:41.170Z,100801.38
2018-07-17T03:43:45.806Z,100807.24
2018-07-17T03:48:50.023Z,100799.52
2018-07-17T03:53:53.840Z,100804.73
2018-07-17T03:58:57.090Z,100806.56
2018-07-17T04:04:00.249Z,100812.99
2018-07-17T04:09:04.281Z,100814.83
2018-07-17T04:14:07.580Z,100821.09
2018-07-17T04:19:10.911Z,100813.75
2018-07-17T04:24:14.033Z,100814.50
2018-07-17T04:29:17.255Z,100812.34
2018-07-17T04:34:20.399Z,100814.59
2018-07-17T04:39:23.535Z,100820.27
2018-07-17T04:44:26.645Z,100820.32
2018-07-17T04:49:29.759Z,100828.06
2018-07-17T04:54:32.927Z,100824.83
2018-07-17T04:59:36.051Z,100813.02
2018-07-17T05:04:39.268Z,100818.10
2018-07-17T05:09:42.401Z,100824.36
2018-07-17T05:14:45.791Z,100837.91
2018-07-17T05:19:49.070Z,100842.18
2018-07-17T05:24:52.297Z,100843.49
2018-07-17T05:29:55.480Z,100838.11
2018-07-17T05:34:58.692Z,100842.70
2018-07-17T05:40:01.815Z,100842.73
2018-07-17T05:45:05.061Z,100844.70
2018-07-17T05:50:08.284Z,100834.94
2018-07-17T05:55:11.428Z,100841.22
2018-07-17T06:00:14.665Z,100840.77
2018-07-17T06:05:17.918Z,100835.34
2018-07-17T06:10:21.107Z,100833.47
2018-07-17T06:15:24.190Z,100842.37
2018-07-17T06:20:27.558Z,100843.98
2018-07-17T06:25:31.118Z,100836.02
2018-07-17T06:30:34.256Z,100841.89
2018-07-17T06:35:37.517Z,100846.05
2018-07-17T06:40:41.288Z,100855.55
2018-07-17T06:45:44.538Z,100847.55
2018-07-17T06:50:47.818Z,100849.91
2018-07-17T06:55:50.918Z,100849.91
2018-07-17T07:00:54.101Z,100855.36
2018-07-17T07:05:57.276Z,100860.73
2018-07-17T07:11:00.395Z,100861.80
2018-07-17T07:16:03.555Z,100862.42
2018-07-17T07:21:06.701Z,100866.41
2018-07-17T07:26:09.819Z,100858.97
2018-07-17T07:31:13.128Z,100856.42
2018-07-17T07:36:16.340Z,100851.70
2018-07-17T07:41:19.486Z,100842.39
2018-07-17T07:46:22.677Z,100846.00
2018-07-17T07:51:25.839Z,100851.27
2018-07-17T07:56:29.006Z,100844.87
2018-07-17T08:01:32.150Z,100846.86
2018-07-17T08:06:35.318Z,100850.72
2018-07-17T08:11:38.546Z,100842.69
2018-07-17T08:16:41.725Z,100836.80
2018-07-17T08:21:45.062Z,100828.73
2018-07-17T08:26:48.243Z,100830.41
2018-07-17T08:31:51.476Z,100836.77
2018-07-17T08:36:54.622Z,100842.02
2018-07-17T08:41:57.900Z,100843.30
2018-07-17T08:47:01.108Z,100847.33
2018-07-17T08:52:04.259Z,100824.30
2018-07-17T08:57:07.420Z,100830.92
2018-07-17T09:02:10.538Z,100829.22
2018-07-17T09:07:13.769Z,100832.52
2018-07-17T09:12:16.997Z,100827.92
2018-07-17T09:17:20.140Z,100826.37
2018-07-17T09:22:23.272Z,100838.06
2018-07-17T09:27:26.481Z,100823.03
2018-07-17T09:32:29.641Z,100819.17
2018-07-17T09:37:33.071Z,100819.22
2018-07-17T09:42:36.206Z,100814.48
2018-07-17T09:47:39.957Z,100805.64
2018-07-17T09:52:43.180Z,100818.43
2018-07-17T09:57:46.408Z,100817.03
2018-07-17T10:02:49.660Z,100810.16
2018-07-17T10:07:52.817Z,100814.55
2018-07-17T10:12:56.004Z,100813.29
2018-07-17T10:17:59.245Z,100808.71
2018-07-17T10:23:02.467Z,100808.23
2018-07-17T10:28:05.642Z,100805.91
2018-07-17T10:33:09.068Z,100800.16
2018-07-17T10:38:12.415Z,100799.66
2018-07-17T10:43:15.617Z,100784.92
2018-07-17T10:48:18.760Z,100790.38
2018-07-17T10:53:21.907Z,100791.15
2018-07-17T10:58:25.048Z,100773.40
2018-07-17T11:03:28.235Z,100783.94
2018-07-17T11:08:31.479Z,100770.08
2018-07-17T11:13:34.638Z,100770.06
2018-07-17T11:18:37.757Z,100767.77
2018-07-17T11:23:41.164Z,100766.54
2018-07-17T11:28:44.486Z,100770.75
2018-07-17T11:33:47.788Z,100750.48
2018-07-17T11:38:51.134Z,100753.39
2018-07-17T11:43:54.949Z,100757.52
2018-07-17T11:48:58.391Z,100755.69
2018-07-17T11:54:01.974Z,100743.09
2018-07-17T11:59:05.295Z,100744.48
2018-07-17T12:04:08.378Z,100740.80
2018-07-17T12:09:12.012Z,100740.84
2018-07-17T12:14:15.318Z,100733.94
2018-07-17T12:19:18.619Z,100741.87
2018-07-17T12:24:21.836Z,100732.73
2018-07-17T12:29:25.060Z,100723.02
2018-07-17T12:34:28.223Z,100722.22
2018-07-17T12:39:31.350Z,100723.30
2018-07-17T12:44:34.514Z,100713.73
2018-07-17T12:49:37.680Z,100716.36
2018-07-17T12:54:41.345Z,100706.78
2018-07-17T12:59:45.825Z,100712.03
2018-07-17T13:04:49.905Z,100703.04
2018-07-17T13:09:53.039Z,100717.78
2018-07-17T13:14:56.232Z,100702.51
2018-07-17T13:19:59.403Z,100691.99
2018-07-17T13:25:02.756Z,100687.56
2018-07-17T13:30:06.006Z,100687.67
2018-07-17T13:35:09.128Z,100685.48
2018-07-17T13:40:13.102Z,100675.73
2018-07-17T13:45:16.466Z,100676.52
2018-07-17T13:50:19.843Z,100677.05
2018-07-17T13:55:23.262Z,100669.86
2018-07-17T14:00:26.595Z,100669.84
2018-07-17T14:05:29.783Z,100660.08
2018-07-17T14:10:33.032Z,100648.38
2018-07-17T14:15:36.163Z,100658.79
2018-07-17T14:20:39.354Z,100659.68
2018-07-17T14:25:42.655Z,100651.70
2018-07-17T14:30:45.823Z,100655.75
2018-07-17T14:35:49.513Z,100648.52
2018-07-17T14:40:52.700Z,100658.83
2018-07-17T14:45:55.866Z,100647.99
2018-07-17T14:50:59.539Z,100640.19
2018-07-17T14:56:02.700Z,100634.95
2018-07-17T15:01:05.921Z,100638.16
2018-07-17T15:06:09.079Z,100630.34
2018-07-17T15:11:12.352Z,100625.00
2018-07-17T15:16:15.548Z,100634.20
2018-07-17T15:21:20.043Z,100625.20
2018-07-17T15:26:23.195Z,100630.52
2018-07-17T15:31:26.390Z,100634.63
2018-07-17T15:36:29.661Z,100633.19
2018-07-17T15:41:32.892Z,100638.12
2018-07-17T15:46:36.138Z,100636.22
2018-07-17T15:51:39.426Z,100649.91
2018-07-17T15:56:42.929Z,100634.31
2018-07-17T16:01:48.270Z,100636.53
2018-07-17T16:06:51.386Z,100639.16
2018-07-17T16:11:54.550Z,100645.25
2018-07-17T16:16:59.940Z,100647.13
2018-07-17T16:22:03.458Z,100646.03
2018-07-17T16:27:06.696Z,100644.93
2018-07-17T16:32:09.851Z,100653.85
2018-07-17T16:37:13.047Z,100651.68
2018-07-17T16:42:16.265Z,100650.95
2018-07-17T16:47:19.990Z,100655.25
2018-07-17T16:52:23.155Z,100659.62
2018-07-17T16:57:26.261Z,100656.48
2018-07-17T17:02:29.486Z,100665.86
2018-07-17T17:07:32.809Z,100664.78
2018-07-17T17:12:36.004Z,100667.70
2018-07-17T17:17:39.165Z,100668.63
2018-07-17T17:22:42.312Z,100675.21
2018-07-17T17:27:45.688Z,100684.15
2018-07-17T17:32:49.011Z,100676.23
2018-07-17T17:37:52.711Z,100683.66
2018-07-17T17:42:55.842Z,100698.00
2018-07-17T17:47:59.047Z,100702.13
2018-07-17T17:53:02.257Z,100699.90
2018-07-17T17:58:05.428Z,100700.70
2018-07-17T18:03:08.625Z,100708.91
2018-07-17T18:08:12.155Z,100700.97
2018-07-17T18:13:16.538Z,100704.20
2018-07-17T18:18:19.963Z,100707.98
2018-07-17T18:23:23.338Z,100707.89
2018-07-17T18:28:26.644Z,100719.37
2018-07-17T18:33:30.817Z,100716.88
2018-07-17T18:38:34.627Z,100723.16
2018-07-17T18:43:37.809Z,100724.98
2018-07-17T18:48:51.813Z,100733.81
2018-07-17T18:53:57.139Z,100741.11
2018-07-17T18:59:00.284Z,100736.62
2018-07-17T19:04:03.638Z,100740.78
2018-07-17T19:09:09.328Z,100746.11
2018-07-17T19:14:13.553Z,100751.22
2018-07-17T19:19:20.699Z,100757.64
2018-07-17T19:24:26.600Z,100752.73
2018-07-17T19:29:34.302Z,100761.48
2018-07-17T19:34:40.718Z,100762.17
2018-07-17T19:39:47.494Z,100754.08
2018-07-17T19:44:51.019Z,100754.54
2018-07-17T19:49:54.727Z,100763.38
2018-07-17T19:54:58.248Z,100769.92
2018-07-17T20:00:01.592Z,100769.59
2018-07-17T20:05:04.849Z,100775.66
2018-07-17T20:10:09.011Z,100777.34
2018-07-17T20:15:12.184Z,100779.73
2018-07-17T20:20:15.513Z,100780.83
2018-07-17T20:25:18.777Z,100790.94
2018-07-17T20:30:28.631Z,100793.16
2018-07-17T20:35:31.815Z,100791.38
2018-07-17T20:40:35.717Z,100789.16
2018-07-17T20:45:38.873Z,100782.91
2018-07-17T20:50:42.057Z,100786.00
2018-07-17T20:55:45.216Z,100787.06
2018-07-17T21:00:48.548Z,100786.67
2018-07-17T21:05:52.268Z,100792.27
2018-07-17T21:10:55.639Z,100790.88
2018-07-17T21:15:59.371Z,100798.41
2018-07-17T21:21:02.543Z,100797.00
2018-07-17T21:26:05.617Z,100804.91
2018-07-17T21:31:08.693Z,100798.41
2018-07-17T21:36:11.849Z,100798.80
2018-07-17T21:41:14.980Z,100790.16
2018-07-17T21:46:18.189Z,100801.97
2018-07-17T21:51:21.440Z,100814.88
2018-07-17T21:56:24.956Z,100806.80
2018-07-17T22:01:28.120Z,100805.22
2018-07-17T22:06:31.239Z,100804.17
2018-07-17T22:11:34.311Z,100811.05
2018-07-17T22:16:37.769Z,100814.70
2018-07-17T22:21:40.897Z,100805.30
2018-07-17T22:26:44.112Z,100825.69
2018-07-17T22:31:47.295Z,100816.30
2018-07-17T22:36:50.662Z,100811.60
2018-07-17T22:41:53.840Z,100813.73
2018-07-17T22:46:57.311Z,100820.06
2018-07-17T22:52:00.844Z,100822.11
2018-07-17T22:57:04.036Z,100827.32
2018-07-17T23:02:09.361Z,100821.27
2018-07-17T23:07:13.399Z,100821.34
2018-07-17T23:12:17.240Z,100829.09
2018-07-17T23:17:20.420Z,100828.48
2018-07-17T23:22:40.335Z,100830.52
2018-07-17T23:27:43.452Z,100834.18
2018-07-17T23:32:46.588Z,100838.89
2018-07-17T23:37:49.776Z,100833.47
2018-07-17T23:42:53.084Z,100831.55
2018-07-17T23:47:56.204Z,100835.91
2018-07-17T23:52:59.390Z,100829.47
2018-07-17T23:58:02.609Z,100826.41
